Huntington, New York
Current Conditions -  °F | °C
As of 8:53 AM on Thursday 30 Oct 2014 (Local Time) from KFRG Reporting Station
Clear Clear  
Wind Chill: 52°   Ceiling: Unl
Heat Index: 52°   Visibility: 10mi
Dew Point: 47°   Wind: 5mph
Humidity: 83%   Direction: 320°NW
Pressure: 29.99"   Gusts: NA
Location:  40.87°N, 73.42°W
Report Text: KFRG 301253Z 32004KT 10SM CLR 11/08 A2999 RMK AO2 SLP154 T01110083
Loading
Personal Weather Stations






























Interactive Weather Map New forecast layout! Learn more

10-Day Weather Forecast

Advertisements
Track Severe Weather on mobile